»·PEaware :: N782S KSMX-KBFL

N782S :: KSMX-KBFL

FLIGHT INFORMATION

Flight Status: Arrived
Operator: Privately registered:
United States
More flights under this callsign
Pilot: Mike M. (16686)
Aircraft: Unknown
(T210)
More flights by this aircraft type
Origin: KSMX Santa Maria Pub/Capt Hancock
United States
Destination: KBFL Meadows
United States
More flights between these airports :: More routes between these airports
Route: +KKSMX FLW EHF KBFL
File this flight plan on PilotEdge
Remarks:
Altitude:
(Current/Filed)
7,500ft
Speed:
(Current/Filed)
130kts
Departed: 02-Oct-17 09:11 PM
Arrived: 02-Oct-17 09:52 PM
Distance/Time
Traveled:
76nm/0:40
Distance/Time
To Go:
Arrived

Flight Plot

Page will automatically refresh every two minutes.

Flight plan parsing failed; only flown route is shown


Map Options




Map Legend


Flown Route
Filed Route
Departure Airport
Arrival Airport
Navaid (VOR, NDB)
Fix

Horizontal Profiles

Position Reports

Time Latitude Longitude Heading Altitude Ground
Speed
02-Oct-17 21:02 34.901613 -120.452222 228 265ft 0kts
02-Oct-17 21:03 34.901613 -120.452222 228 265ft 0kts
02-Oct-17 21:04 34.901613 -120.452222 228 265ft 0kts
02-Oct-17 21:05 34.901613 -120.452222 228 265ft 0kts
02-Oct-17 21:06 34.901613 -120.452222 228 265ft 0kts
02-Oct-17 21:07 34.901613 -120.452222 228 265ft 0kts
02-Oct-17 21:08 34.901595 -120.452239 213 265ft 0kts
02-Oct-17 21:09 34.900726 -120.452789 140 265ft 9kts
02-Oct-17 21:10 34.897930 -120.449412 134 265ft 17kts
02-Oct-17 21:11 34.894420 -120.445430 161 265ft 11kts
02-Oct-17 21:12 34.894047 -120.445364 179 265ft 3kts
02-Oct-17 21:13 34.893739 -120.445360 183 265ft 0kts
02-Oct-17 21:14 34.893085 -120.446152 317 265ft 16kts
02-Oct-17 21:15 34.910783 -120.466658 312 1129ft 93kts
02-Oct-17 21:16 34.905831 -120.490643 241 2041ft 104kts
02-Oct-17 21:17 34.898581 -120.532397 275 3192ft 111kts
02-Oct-17 21:18 34.914950 -120.532905 75 4028ft 125kts
02-Oct-17 21:19 34.924330 -120.492184 72 5031ft 127kts
02-Oct-17 21:20 34.931812 -120.449142 71 5979ft 132kts
02-Oct-17 21:21 34.938095 -120.404169 75 6890ft 138kts
02-Oct-17 21:22 34.952055 -120.359813 61 7507ft 153kts
02-Oct-17 21:23 34.966538 -120.315771 65 7503ft 163kts
02-Oct-17 21:24 34.981499 -120.265314 66 7500ft 150kts
02-Oct-17 21:25 34.994623 -120.220812 66 7503ft 144kts
02-Oct-17 21:26 35.007470 -120.174626 67 7506ft 144kts
02-Oct-17 21:27 35.020366 -120.128269 67 7508ft 144kts
02-Oct-17 21:28 35.033337 -120.081611 68 7510ft 146kts
02-Oct-17 21:29 35.046283 -120.034961 68 7512ft 148kts
02-Oct-17 21:30 35.059535 -119.987055 68 7513ft 149kts
02-Oct-17 21:31 35.072776 -119.939067 68 7513ft 149kts
02-Oct-17 21:32 35.086058 -119.890933 68 7513ft 149kts
02-Oct-17 21:33 35.102666 -119.845715 52 7515ft 147kts
02-Oct-17 21:34 35.125659 -119.804668 52 7509ft 140kts
02-Oct-17 21:35 35.148205 -119.762310 54 6922ft 155kts
02-Oct-17 21:36 35.171374 -119.717445 54 6365ft 155kts
02-Oct-17 21:37 35.194253 -119.672729 54 5834ft 157kts
02-Oct-17 21:38 35.217078 -119.627888 54 5497ft 151kts
02-Oct-17 21:39 35.238629 -119.585316 54 5493ft 144kts
02-Oct-17 21:40 35.259658 -119.544056 54 5490ft 141kts
02-Oct-17 21:41 35.279021 -119.505911 54 5484ft 130kts
02-Oct-17 21:42 35.298019 -119.468273 54 5098ft 134kts
02-Oct-17 21:43 35.318050 -119.428946 55 4611ft 138kts
02-Oct-17 21:44 35.338579 -119.388471 55 4065ft 141kts
02-Oct-17 21:45 35.359062 -119.347922 56 3535ft 140kts
02-Oct-17 21:46 35.375656 -119.304710 64 3008ft 140kts
02-Oct-17 21:47 35.387672 -119.260594 75 2460ft 133kts
02-Oct-17 21:48 35.395872 -119.217548 75 1865ft 127kts
02-Oct-17 21:49 35.400480 -119.174782 85 1674ft 126kts
02-Oct-17 21:50 35.397898 -119.132116 99 1712ft 120kts
02-Oct-17 21:51 35.392618 -119.099416 99 1556ft 84kts
02-Oct-17 21:52 35.395426 -119.072057 74 1372ft 83kts
02-Oct-17 21:53 35.403296 -119.045726 57 1066ft 79kts
02-Oct-17 21:54 35.420676 -119.040486 325 655ft 76kts
02-Oct-17 21:55 35.434081 -119.056329 317 487ft 46kts
02-Oct-17 21:56 35.436224 -119.057798 58 492ft 2kts
02-Oct-17 21:57 35.434557 -119.054835 126 492ft 7kts
02-Oct-17 21:58 35.434945 -119.053345 87 499ft 0kts

Navigation Log

Ident Type
Flight plan parsing failed, navigation log unavailable